createdAt,value
2022-09-11T00:01:09.583Z,14.08
2022-09-11T00:04:11.365Z,14.06
2022-09-11T00:07:13.128Z,14.08
2022-09-11T00:10:15.290Z,14.03
2022-09-11T00:13:21.674Z,14.06
2022-09-11T00:16:34.080Z,14.06
2022-09-11T00:19:36.686Z,14.01
2022-09-11T00:22:39.834Z,14.12
2022-09-11T00:25:41.891Z,14.00
2022-09-11T00:28:50.980Z,13.78
2022-09-11T00:31:52.924Z,13.80
2022-09-11T00:34:54.792Z,13.81
2022-09-11T00:37:57.413Z,13.81
2022-09-11T00:41:01.148Z,13.82
2022-09-11T00:44:07.567Z,13.82
2022-09-11T00:47:09.958Z,13.64
2022-09-11T00:50:19.542Z,13.55
2022-09-11T00:53:30.487Z,13.53
2022-09-11T00:56:38.058Z,13.38
2022-09-11T00:59:42.160Z,13.45
2022-09-11T01:02:47.913Z,13.53
2022-09-11T01:05:56.368Z,13.50
2022-09-11T01:09:00.595Z,13.45
2022-09-11T01:12:12.160Z,13.46
2022-09-11T01:15:50.154Z,13.41
2022-09-11T01:19:05.903Z,13.31
2022-09-11T01:22:16.868Z,13.36
2022-09-11T01:25:23.368Z,13.39
2022-09-11T01:28:54.416Z,13.18
2022-09-11T01:32:07.018Z,13.24
2022-09-11T01:35:24.962Z,13.20
2022-09-11T01:38:59.596Z,13.18
2022-09-11T01:42:07.242Z,13.04
2022-09-11T01:45:10.791Z,12.97
2022-09-11T01:48:18.706Z,13.12
2022-09-11T01:51:24.301Z,13.16
2022-09-11T01:54:43.231Z,13.19
2022-09-11T01:57:58.066Z,13.17
2022-09-11T02:01:06.236Z,13.17
2022-09-11T02:04:22.503Z,13.07
2022-09-11T02:07:31.911Z,13.07
2022-09-11T02:10:40.972Z,13.15
2022-09-11T02:14:16.645Z,13.12
2022-09-11T02:17:31.763Z,13.24
2022-09-11T02:20:45.699Z,13.25
2022-09-11T02:23:50.939Z,13.32
2022-09-11T02:26:55.991Z,13.38
2022-09-11T02:30:01.152Z,13.47
2022-09-11T02:33:47.400Z,13.43
2022-09-11T02:37:13.700Z,13.45
2022-09-11T02:40:46.953Z,13.42
2022-09-11T02:44:21.081Z,13.42
2022-09-11T02:47:35.450Z,13.44
2022-09-11T02:50:49.756Z,13.44
2022-09-11T02:54:21.148Z,13.41
2022-09-11T02:57:39.619Z,13.52
2022-09-11T03:00:41.871Z,13.55
2022-09-11T03:03:46.929Z,13.59
2022-09-11T03:06:50.950Z,13.56
2022-09-11T03:09:57.220Z,13.61
2022-09-11T03:13:00.424Z,13.64
2022-09-11T03:16:06.611Z,13.63
2022-09-11T03:19:09.040Z,13.62
2022-09-11T03:22:14.805Z,13.66
2022-09-11T03:25:17.964Z,13.65
2022-09-11T03:28:23.725Z,13.72
2022-09-11T03:31:26.563Z,13.68
2022-09-11T03:34:30.038Z,13.76
2022-09-11T03:37:32.407Z,13.80
2022-09-11T03:40:41.801Z,13.83
2022-09-11T03:43:43.854Z,13.82
2022-09-11T03:46:54.230Z,13.87
2022-09-11T03:49:57.022Z,13.79
2022-09-11T03:52:59.153Z,13.79
2022-09-11T03:56:06.053Z,13.85
2022-09-11T03:59:18.336Z,13.89
2022-09-11T04:02:20.765Z,13.91
2022-09-11T04:05:32.401Z,13.90
2022-09-11T04:08:41.635Z,13.86
2022-09-11T04:11:49.843Z,13.90
2022-09-11T04:15:02.950Z,13.85
2022-09-11T04:18:07.698Z,13.86
2022-09-11T04:21:16.378Z,13.76
2022-09-11T04:24:24.765Z,13.69
2022-09-11T04:27:27.636Z,13.66
2022-09-11T04:30:31.038Z,13.67
2022-09-11T04:33:35.409Z,13.71
2022-09-11T04:36:38.711Z,13.81
2022-09-11T04:39:44.620Z,13.74
2022-09-11T04:42:47.374Z,13.84
2022-09-11T04:45:50.380Z,13.90
2022-09-11T04:48:56.502Z,13.99
2022-09-11T04:52:06.090Z,14.01
2022-09-11T04:55:10.176Z,14.06
2022-09-11T04:58:14.833Z,14.17
2022-09-11T05:01:17.396Z,14.19
2022-09-11T05:04:27.822Z,14.19
2022-09-11T05:07:35.463Z,14.17
2022-09-11T05:10:48.823Z,13.95
2022-09-11T05:13:52.371Z,13.72
2022-09-11T05:16:58.701Z,13.72
2022-09-11T05:20:12.658Z,13.56
2022-09-11T05:23:19.010Z,13.69
2022-09-11T05:26:31.399Z,13.82
2022-09-11T05:29:35.840Z,13.93
2022-09-11T05:32:44.624Z,14.10
2022-09-11T05:35:52.806Z,14.28
2022-09-11T05:39:02.808Z,14.42
2022-09-11T05:42:05.949Z,14.53
2022-09-11T05:45:26.000Z,14.43
2022-09-11T05:48:30.046Z,14.50
2022-09-11T05:51:37.730Z,14.61
2022-09-11T05:54:47.280Z,14.54
2022-09-11T05:57:53.198Z,14.74
2022-09-11T06:01:12.697Z,14.74
2022-09-11T06:04:21.674Z,14.79
2022-09-11T06:07:27.792Z,14.73
2022-09-11T06:10:32.894Z,14.80
2022-09-11T06:13:37.865Z,14.88
2022-09-11T06:16:44.181Z,15.01
2022-09-11T06:19:50.636Z,15.03
2022-09-11T06:22:52.945Z,15.06
2022-09-11T06:26:03.315Z,14.95
2022-09-11T06:29:11.113Z,15.01
2022-09-11T06:32:12.980Z,15.05
2022-09-11T06:35:18.940Z,15.18
2022-09-11T06:38:21.581Z,15.18
2022-09-11T06:41:25.691Z,15.40
2022-09-11T06:44:34.670Z,15.39
2022-09-11T06:47:40.677Z,15.44
2022-09-11T06:50:46.294Z,15.58
2022-09-11T06:53:49.001Z,15.53
2022-09-11T06:56:54.080Z,15.65
2022-09-11T06:59:58.160Z,15.71
2022-09-11T07:03:04.257Z,15.55
2022-09-11T07:06:06.591Z,15.58
2022-09-11T07:09:12.037Z,15.72
2022-09-11T07:12:24.420Z,15.94
2022-09-11T07:15:27.090Z,15.84
2022-09-11T07:18:36.507Z,16.10
2022-09-11T07:21:42.875Z,16.51
2022-09-11T07:24:47.425Z,16.69
2022-09-11T07:27:52.315Z,16.97
2022-09-11T07:31:04.448Z,17.14
2022-09-11T07:34:07.115Z,17.54
2022-09-11T07:37:10.318Z,18.17
2022-09-11T07:40:14.405Z,18.38
2022-09-11T07:43:16.755Z,18.21
2022-09-11T07:46:19.863Z,18.37
2022-09-11T07:49:24.446Z,18.85
2022-09-11T07:52:27.706Z,18.38
2022-09-11T07:55:35.656Z,18.27
2022-09-11T07:58:40.807Z,18.01
2022-09-11T08:01:44.695Z,17.85
2022-09-11T08:04:47.554Z,18.14
2022-09-11T08:07:51.971Z,18.61
2022-09-11T08:10:58.153Z,18.62
2022-09-11T08:14:01.630Z,18.53
2022-09-11T08:17:03.771Z,18.12
2022-09-11T08:20:07.884Z,18.20
2022-09-11T08:23:13.694Z,18.48
2022-09-11T08:26:24.005Z,18.13
2022-09-11T08:29:28.678Z,18.08
2022-09-11T08:32:31.832Z,18.05
2022-09-11T08:35:35.871Z,18.14
2022-09-11T08:38:40.706Z,18.03
2022-09-11T08:41:43.595Z,18.12
2022-09-11T08:44:57.029Z,17.96
2022-09-11T08:48:07.211Z,17.67
2022-09-11T08:51:17.624Z,17.93
2022-09-11T08:54:33.888Z,17.67
2022-09-11T08:57:57.659Z,17.48
2022-09-11T09:01:10.957Z,17.50
2022-09-11T09:04:23.945Z,17.27
2022-09-11T09:07:26.784Z,17.08
2022-09-11T09:10:34.607Z,17.16
2022-09-11T09:14:00.746Z,17.15
2022-09-11T09:17:10.376Z,17.18
2022-09-11T09:20:24.421Z,16.99
2022-09-11T09:23:36.885Z,17.11
2022-09-11T09:26:42.813Z,17.24
2022-09-11T09:29:48.127Z,17.30
2022-09-11T09:33:13.214Z,18.04
2022-09-11T09:36:25.502Z,18.82
2022-09-11T09:39:29.829Z,18.52
2022-09-11T09:42:51.489Z,18.12
2022-09-11T09:46:27.169Z,18.59
2022-09-11T09:49:34.629Z,18.57
2022-09-11T09:52:37.511Z,18.22
2022-09-11T09:55:40.704Z,18.42
2022-09-11T09:59:12.239Z,18.71
2022-09-11T10:03:02.573Z,18.87
2022-09-11T10:06:05.648Z,19.30
2022-09-11T10:09:26.246Z,19.13
2022-09-11T10:12:34.001Z,18.88
2022-09-11T10:15:39.534Z,19.53
2022-09-11T10:18:44.285Z,19.97
2022-09-11T10:21:46.561Z,19.81
2022-09-11T10:25:12.787Z,19.93
2022-09-11T10:28:17.824Z,20.40
2022-09-11T10:31:22.558Z,19.99
2022-09-11T10:34:29.408Z,20.40
2022-09-11T10:37:31.755Z,20.40
2022-09-11T10:40:36.677Z,20.64
2022-09-11T10:43:42.051Z,21.41
2022-09-11T10:46:46.386Z,20.53
2022-09-11T10:49:49.365Z,19.85
2022-09-11T10:53:10.611Z,20.18
2022-09-11T10:56:13.855Z,20.36
2022-09-11T10:59:50.190Z,19.54
2022-09-11T11:02:56.817Z,19.84
2022-09-11T11:06:07.203Z,20.57
2022-09-11T11:09:33.575Z,21.31
2022-09-11T11:13:13.789Z,21.54
2022-09-11T11:16:35.229Z,21.68
2022-09-11T11:19:58.850Z,21.35
2022-09-11T11:23:30.657Z,20.81
2022-09-11T11:27:08.184Z,20.27
2022-09-11T11:30:15.584Z,20.17
2022-09-11T11:33:42.887Z,20.09
2022-09-11T11:36:47.036Z,20.81
2022-09-11T11:40:02.761Z,21.39
2022-09-11T11:43:08.793Z,21.25
2022-09-11T11:46:16.077Z,21.15
2022-09-11T11:49:50.594Z,21.85
2022-09-11T11:53:27.045Z,22.18
2022-09-11T11:56:41.017Z,21.65
2022-09-11T12:00:17.300Z,21.26
2022-09-11T12:03:51.183Z,20.51
2022-09-11T12:06:53.263Z,19.53
2022-09-11T12:09:58.201Z,18.61
2022-09-11T12:13:03.137Z,18.06
2022-09-11T12:16:11.842Z,18.01
2022-09-11T12:19:25.548Z,18.56
2022-09-11T12:22:38.571Z,18.44
2022-09-11T12:25:50.295Z,19.26
2022-09-11T12:29:12.215Z,19.45
2022-09-11T12:32:19.706Z,19.97
2022-09-11T12:35:28.650Z,20.40
2022-09-11T12:38:41.456Z,20.76
2022-09-11T12:41:46.322Z,20.77
2022-09-11T12:44:48.853Z,20.33
2022-09-11T12:47:51.336Z,20.71
2022-09-11T12:50:55.268Z,20.97
2022-09-11T12:54:03.774Z,20.61
2022-09-11T12:57:10.237Z,21.10
2022-09-11T13:00:24.283Z,20.91
2022-09-11T13:03:30.671Z,20.39
2022-09-11T13:06:52.933Z,20.74
2022-09-11T13:09:57.605Z,20.85
2022-09-11T13:13:02.928Z,20.57
2022-09-11T13:16:20.269Z,21.08
2022-09-11T13:19:23.495Z,21.17
2022-09-11T13:22:31.403Z,20.81
2022-09-11T13:25:45.569Z,20.68
2022-09-11T13:28:52.691Z,20.54
2022-09-11T13:31:58.064Z,20.67
2022-09-11T13:35:05.863Z,20.73
2022-09-11T13:38:19.479Z,21.07
2022-09-11T13:41:26.271Z,21.36
2022-09-11T13:44:40.076Z,21.61
2022-09-11T13:47:42.523Z,21.43
2022-09-11T13:50:45.430Z,21.34
2022-09-11T13:54:12.540Z,21.18
2022-09-11T13:57:18.550Z,20.68
2022-09-11T14:00:40.264Z,20.31
2022-09-11T14:03:49.844Z,20.03
2022-09-11T14:06:51.934Z,19.48
2022-09-11T14:10:05.085Z,19.06
2022-09-11T14:13:36.708Z,19.31
2022-09-11T14:16:46.803Z,19.92
2022-09-11T14:19:52.073Z,20.02
2022-09-11T14:22:59.669Z,20.04
2022-09-11T14:26:16.217Z,20.19
2022-09-11T14:29:31.071Z,20.19
2022-09-11T14:32:39.470Z,20.07
2022-09-11T14:35:43.065Z,19.92
2022-09-11T14:38:49.177Z,19.58
2022-09-11T14:41:59.864Z,19.25
2022-09-11T14:45:25.225Z,18.87
2022-09-11T14:48:28.830Z,18.13
2022-09-11T14:51:35.050Z,17.88
2022-09-11T14:54:37.895Z,17.68
2022-09-11T14:57:40.987Z,17.74
2022-09-11T15:00:44.431Z,17.41
2022-09-11T15:03:48.632Z,17.62
2022-09-11T15:06:53.530Z,17.88
2022-09-11T15:09:59.280Z,18.11
2022-09-11T15:13:04.596Z,18.15
2022-09-11T15:16:09.882Z,18.14
2022-09-11T15:19:15.397Z,18.23
2022-09-11T15:22:18.181Z,18.27
2022-09-11T15:25:20.238Z,18.30
2022-09-11T15:28:24.974Z,18.11
2022-09-11T15:31:30.443Z,17.96
2022-09-11T15:34:33.509Z,17.75
2022-09-11T15:37:35.808Z,17.64
2022-09-11T15:40:39.575Z,17.34
2022-09-11T15:43:45.975Z,17.36
2022-09-11T15:46:51.237Z,17.17
2022-09-11T15:49:57.241Z,16.92
2022-09-11T15:52:59.472Z,16.77
2022-09-11T15:56:13.571Z,16.75
2022-09-11T15:59:16.811Z,16.59
2022-09-11T16:02:21.021Z,16.31
2022-09-11T16:05:24.702Z,16.17
2022-09-11T16:08:28.382Z,16.17
2022-09-11T16:11:35.457Z,16.39
2022-09-11T16:14:38.983Z,16.33
2022-09-11T16:17:42.345Z,16.42
2022-09-11T16:20:44.704Z,16.26
2022-09-11T16:23:53.580Z,16.14
2022-09-11T16:26:59.816Z,16.28
2022-09-11T16:30:42.071Z,16.10
2022-09-11T16:33:30.173Z,15.98
2022-09-11T16:36:41.542Z,15.97
2022-09-11T16:39:50.393Z,15.81
2022-09-11T16:42:54.591Z,15.73
2022-09-11T16:45:59.360Z,15.89
2022-09-11T16:49:04.365Z,15.77
2022-09-11T16:52:08.031Z,15.63
2022-09-11T16:55:11.833Z,15.45
2022-09-11T16:58:16.733Z,15.42
2022-09-11T17:01:25.264Z,15.39
2022-09-11T17:04:28.038Z,15.23
2022-09-11T17:07:36.298Z,15.15
2022-09-11T17:10:45.208Z,15.19
2022-09-11T17:13:48.541Z,15.12
2022-09-11T17:16:52.337Z,15.08
2022-09-11T17:19:55.244Z,15.11
2022-09-11T17:23:02.720Z,15.03
2022-09-11T17:26:10.117Z,14.99
2022-09-11T17:29:15.953Z,14.89
2022-09-11T17:32:28.488Z,14.98
2022-09-11T17:35:33.503Z,15.01
2022-09-11T17:38:37.523Z,15.04
2022-09-11T17:41:43.032Z,15.11
2022-09-11T17:44:48.405Z,15.08
2022-09-11T17:47:53.068Z,14.90
2022-09-11T17:51:25.960Z,14.89
2022-09-11T17:54:29.017Z,14.87
2022-09-11T17:57:32.523Z,14.80
2022-09-11T18:00:35.517Z,14.66
2022-09-11T18:03:39.741Z,14.55
2022-09-11T18:07:04.202Z,14.58
2022-09-11T18:10:06.828Z,14.38
2022-09-11T18:13:09.825Z,14.38
2022-09-11T18:16:11.937Z,14.27
2022-09-11T18:19:16.783Z,14.20
2022-09-11T18:22:19.903Z,14.28
2022-09-11T18:25:25.805Z,14.26
2022-09-11T18:28:29.794Z,14.36
2022-09-11T18:31:37.275Z,14.37
2022-09-11T18:34:39.740Z,14.41
2022-09-11T18:37:43.217Z,14.44
2022-09-11T18:40:45.345Z,14.37
2022-09-11T18:43:48.798Z,14.37
2022-09-11T18:46:54.796Z,14.34
2022-09-11T18:50:01.146Z,14.26
2022-09-11T18:53:03.313Z,14.29
2022-09-11T18:56:09.666Z,14.27
2022-09-11T18:59:12.723Z,14.20
2022-09-11T19:02:15.393Z,14.18
2022-09-11T19:05:19.490Z,14.18
2022-09-11T19:08:26.439Z,14.15
2022-09-11T19:11:32.487Z,14.12
2022-09-11T19:14:36.253Z,14.17
2022-09-11T19:17:38.927Z,14.32
2022-09-11T19:20:41.538Z,14.29
2022-09-11T19:23:45.429Z,14.29
2022-09-11T19:26:47.966Z,14.24
2022-09-11T19:29:50.307Z,14.18
2022-09-11T19:32:52.979Z,14.11
2022-09-11T19:35:57.728Z,14.09
2022-09-11T19:39:00.879Z,13.99
2022-09-11T19:42:04.448Z,14.02
2022-09-11T19:45:08.571Z,13.89
2022-09-11T19:48:13.129Z,13.98
2022-09-11T19:51:24.012Z,13.95
2022-09-11T19:54:26.215Z,13.90
2022-09-11T19:57:28.450Z,13.91
2022-09-11T20:00:31.397Z,13.87
2022-09-11T20:03:33.378Z,13.88
2022-09-11T20:06:36.445Z,13.84
2022-09-11T20:09:39.156Z,13.73
2022-09-11T20:12:41.402Z,13.70
2022-09-11T20:15:43.841Z,13.72
2022-09-11T20:18:46.904Z,13.69
2022-09-11T20:21:48.896Z,13.71
2022-09-11T20:24:51.642Z,13.65
2022-09-11T20:27:54.272Z,13.64
2022-09-11T20:31:00.509Z,13.57
2022-09-11T20:34:03.745Z,13.58
2022-09-11T20:37:10.006Z,13.51
2022-09-11T20:40:12.529Z,13.44
2022-09-11T20:43:14.962Z,13.46
2022-09-11T20:46:18.512Z,13.46
2022-09-11T20:49:20.769Z,13.42
2022-09-11T20:52:22.784Z,13.40
2022-09-11T20:55:24.834Z,13.41
2022-09-11T20:58:26.946Z,13.35
2022-09-11T21:01:32.623Z,13.32
2022-09-11T21:04:34.772Z,13.41
2022-09-11T21:07:36.826Z,13.35
2022-09-11T21:10:38.771Z,13.33
2022-09-11T21:13:42.526Z,13.33
2022-09-11T21:16:44.623Z,13.29
2022-09-11T21:19:46.555Z,13.22
2022-09-11T21:22:48.723Z,13.22
2022-09-11T21:25:52.744Z,13.25
2022-09-11T21:28:59.227Z,13.23
2022-09-11T21:32:01.897Z,13.25
2022-09-11T21:35:04.340Z,13.26
2022-09-11T21:38:06.292Z,13.25
2022-09-11T21:41:10.413Z,13.28
2022-09-11T21:44:12.249Z,13.18
2022-09-11T21:47:14.133Z,13.19
2022-09-11T21:50:21.831Z,13.13
2022-09-11T21:53:24.906Z,13.20
2022-09-11T21:56:30.270Z,13.19
2022-09-11T21:59:32.849Z,13.21
2022-09-11T22:02:35.011Z,13.26
2022-09-11T22:05:45.980Z,13.24
2022-09-11T22:08:47.773Z,13.30
2022-09-11T22:11:50.174Z,13.24
2022-09-11T22:14:53.160Z,13.31
2022-09-11T22:17:55.467Z,13.35
2022-09-11T22:21:00.751Z,13.35
2022-09-11T22:24:04.561Z,13.35
2022-09-11T22:27:07.217Z,13.40
2022-09-11T22:30:10.549Z,13.46
2022-09-11T22:33:12.508Z,13.42
2022-09-11T22:36:18.133Z,13.41
2022-09-11T22:39:20.189Z,13.42
2022-09-11T22:42:22.025Z,13.37
2022-09-11T22:45:23.974Z,13.35
2022-09-11T22:48:25.969Z,13.38
2022-09-11T22:51:28.267Z,13.38
2022-09-11T22:54:30.384Z,13.35
2022-09-11T22:57:35.105Z,13.40
2022-09-11T23:00:38.024Z,13.44
2022-09-11T23:03:40.080Z,13.40
2022-09-11T23:07:01.587Z,13.36
2022-09-11T23:10:04.053Z,13.31
2022-09-11T23:13:06.152Z,13.31
2022-09-11T23:16:17.861Z,13.25
2022-09-11T23:19:20.270Z,13.18
2022-09-11T23:22:23.047Z,13.20
2022-09-11T23:25:25.659Z,13.19
2022-09-11T23:28:27.410Z,13.22
2022-09-11T23:31:31.566Z,13.21
2022-09-11T23:34:33.707Z,13.22
2022-09-11T23:37:35.756Z,13.31
2022-09-11T23:40:38.082Z,13.44
2022-09-11T23:43:40.300Z,13.41
2022-09-11T23:46:43.037Z,13.48
2022-09-11T23:49:44.979Z,13.49
2022-09-11T23:52:46.882Z,13.42
2022-09-11T23:55:52.525Z,13.45
2022-09-11T23:58:54.475Z,13.42
